Impacts METAR Board
IDs:

KSRQ - Sarasota-Bradenton I, FL, US

Updated at: 1200 UTC 17 Sep 2019
Potential Impact None Slight Moderate High
Time 17/00Z 17/01Z 17/02Z 17/03Z 17/04Z 17/05Z 17/06Z 17/07Z 17/08Z 17/09Z 17/10Z 17/11Z 17/12Z
Temp85 84 83 83 82 82 81 81 80 78 78 78 80
Dewpt74 75 75 75 75 76 76 76 76 75 75 75 76
Altim29.92 29.93 29.94 29.95 29.94 29.93 29.92 29.91 29.90 29.90 29.92 29.94 29.95
VIS10 10 10 10 10 10 10 10 10 10 10 10 10
CIG-- -- -- -- -- -- -- -- -- -- -- -- --
CoverCLRCLRCLRCLRCLRCLRCLRCLRCLRCLRCLRCLRCLR
FltCatVFRVFRVFRVFRVFRVFRVFRVFRVFRVFRVFRVFRVFR
WX--------------------------
WDir33032033034035000000000
WSpd7 7 5 4 4 0 0 0 0 0 0 0 0
WGst-- -- -- -- -- -- -- -- -- -- -- -- --
Raw hourly METARs
KSRQ 162353Z 33007KT 10SM CLR 29/23 A2992 RMK AO2 SLP132 T02940233 10333 20294 53004
KSRQ 170053Z 32007KT 10SM CLR 29/24 A2993 RMK AO2 SLP134 T02890239
KSRQ 170153Z 33005KT 10SM CLR 28/24 A2994 RMK AO2 SLP137 T02830239
KSRQ 170253Z 34004KT 10SM CLR 28/24 A2995 RMK AO2 SLP140 T02830239 53007
KSRQ 170353Z 35004KT 10SM CLR 28/24 A2994 RMK AO2 SLP137 T02780239
KSRQ 170453Z AUTO 00000KT 10SM CLR 28/24 A2993 RMK AO2 SLP133 T02780244 403330256
KSRQ 170553Z AUTO 00000KT 10SM CLR 27/24 A2992 RMK AO2 SLP131 T02720244 10294 20267 56008
KSRQ 170653Z AUTO 00000KT 10SM CLR 27/24 A2991 RMK AO2 SLP128 T02720244
KSRQ 170753Z AUTO 00000KT 10SM CLR 27/24 A2990 RMK AO2 SLP124 T02670244
KSRQ 170853Z AUTO 00000KT 10SM CLR 26/24 A2990 RMK AO2 SLP124 T02560239 56007
KSRQ 170953Z 00000KT 10SM CLR 26/24 A2992 RMK AO2 SLP129 T02560239
KSRQ 171053Z 00000KT 10SM CLR 26/24 A2994 RMK AO2 SLP137 T02560239
KSRQ 171153Z 00000KT 10SM CLR 27/24 A2995 RMK AO2 SLP141 T02670244 10272 20256 51017



Page loaded:  12:31 UTC  |   05:31 AM Pacific  |   06:31 AM Mountain  |   07:31 AM Central  |   08:31 AM Eastern

 

ADVISORIES

FORECASTS

FORECASTS

OBSERVATIONS

USER TOOLS

ABOUT US